createdAt,value
2023-01-17T00:00:07.323Z,102622.91
2023-01-17T00:05:29.413Z,102631.63
2023-01-17T00:10:32.318Z,102632.84
2023-01-17T00:15:35.363Z,102613.94
2023-01-17T00:20:57.256Z,102623.28
2023-01-17T00:26:05.979Z,102634.72
2023-01-17T00:31:10.745Z,102626.94
2023-01-17T00:36:14.119Z,102621.13
2023-01-17T00:41:16.794Z,102606.59
2023-01-17T00:46:38.877Z,102627.72
2023-01-17T00:52:00.004Z,102630.72
2023-01-17T00:57:21.167Z,102613.66
2023-01-17T01:02:42.902Z,102627.47
2023-01-17T01:08:04.347Z,102597.59
2023-01-17T01:13:25.788Z,102632.31
2023-01-17T01:18:47.645Z,102628.59
2023-01-17T01:24:09.072Z,102621.91
2023-01-17T01:29:30.348Z,102624.34
2023-01-17T01:34:33.265Z,102620.09
2023-01-17T01:39:36.223Z,102637.28
2023-01-17T01:44:59.209Z,102633.31
2023-01-17T01:50:06.077Z,102615.25
2023-01-17T01:55:18.809Z,102645.38
2023-01-17T02:00:30.070Z,102627.34
2023-01-17T02:05:34.490Z,102630.56
2023-01-17T02:10:39.867Z,102635.50
2023-01-17T02:15:48.629Z,102634.44
2023-01-17T02:20:59.407Z,102645.25
2023-01-17T02:26:40.143Z,102647.84
2023-01-17T02:31:51.889Z,102647.22
2023-01-17T02:37:11.996Z,102634.19
2023-01-17T02:42:20.984Z,102617.06
2023-01-17T02:47:29.518Z,102641.09
2023-01-17T02:52:56.456Z,102648.41
2023-01-17T02:58:13.472Z,102658.97
2023-01-17T03:03:28.499Z,102668.56
2023-01-17T03:08:31.886Z,102669.91
2023-01-17T03:13:34.677Z,102651.16
2023-01-17T03:18:37.501Z,102643.28
2023-01-17T03:23:40.378Z,102659.00
2023-01-17T03:28:43.469Z,102647.25
2023-01-17T03:33:46.933Z,102676.56
2023-01-17T03:38:49.735Z,102679.97
2023-01-17T03:43:52.518Z,102688.97
2023-01-17T03:48:55.817Z,102662.63
2023-01-17T03:53:58.537Z,102685.47
2023-01-17T03:59:01.336Z,102698.16
2023-01-17T04:04:04.181Z,102687.72
2023-01-17T04:09:07.023Z,102692.72
2023-01-17T04:14:09.794Z,102692.19
2023-01-17T04:19:13.987Z,102709.41
2023-01-17T04:24:18.004Z,102715.97
2023-01-17T04:29:21.401Z,102726.56
2023-01-17T04:34:24.624Z,102728.63
2023-01-17T04:39:27.740Z,102733.94
2023-01-17T04:44:30.826Z,102731.97
2023-01-17T04:49:33.762Z,102745.94
2023-01-17T04:54:36.675Z,102753.47
2023-01-17T04:59:39.284Z,102772.00
2023-01-17T05:04:42.097Z,102774.09
2023-01-17T05:09:44.852Z,102787.84
2023-01-17T05:14:47.708Z,102782.22
2023-01-17T05:19:52.034Z,102774.75
2023-01-17T05:24:54.843Z,102780.19
2023-01-17T05:29:58.297Z,102789.03
2023-01-17T05:35:02.966Z,102774.44
2023-01-17T05:40:10.311Z,102778.50
2023-01-17T05:45:17.023Z,102780.00
2023-01-17T05:50:56.515Z,102792.78
2023-01-17T05:56:21.299Z,102784.94
2023-01-17T06:01:42.303Z,102785.63
2023-01-17T06:06:45.178Z,102799.91
2023-01-17T06:11:48.026Z,102776.66
2023-01-17T06:16:50.896Z,102773.75
2023-01-17T06:22:00.911Z,102783.69
2023-01-17T06:27:04.797Z,102762.38
2023-01-17T06:32:17.766Z,102775.88
2023-01-17T06:37:20.424Z,102772.84
2023-01-17T06:42:23.513Z,102745.88
2023-01-17T06:47:26.418Z,102775.97
2023-01-17T06:52:29.495Z,102769.16
2023-01-17T06:57:32.355Z,102765.38
2023-01-17T07:02:35.315Z,102771.00
2023-01-17T07:07:38.144Z,102770.34
2023-01-17T07:12:41.324Z,102768.97
2023-01-17T07:18:14.241Z,102778.34
2023-01-17T07:23:40.597Z,102758.88
2023-01-17T07:28:43.508Z,102768.97
2023-01-17T07:33:46.507Z,102762.97
2023-01-17T07:39:21.759Z,102775.31
2023-01-17T07:44:25.305Z,102766.69
2023-01-17T07:50:02.164Z,102757.06
2023-01-17T07:55:06.122Z,102768.78
2023-01-17T08:00:09.687Z,102758.97
2023-01-17T08:05:16.157Z,102782.72
2023-01-17T08:10:19.629Z,102758.69
2023-01-17T08:15:23.974Z,102769.56
2023-01-17T08:20:28.145Z,102762.94
2023-01-17T08:25:33.570Z,102775.22
2023-01-17T08:30:36.616Z,102759.56
2023-01-17T08:35:39.375Z,102752.16
2023-01-17T08:41:46.615Z,102749.09
2023-01-17T08:46:50.129Z,102744.00
2023-01-17T09:00:01.573Z,102738.72
2023-01-17T09:05:08.485Z,102754.47
2023-01-17T09:10:14.072Z,102738.59
2023-01-17T09:15:20.510Z,102745.16
2023-01-17T09:20:24.479Z,102736.00
2023-01-17T09:25:27.774Z,102744.75
2023-01-17T09:30:30.645Z,102733.44
2023-01-17T09:35:38.689Z,102724.06
2023-01-17T09:40:47.928Z,102720.84
2023-01-17T09:45:51.118Z,102698.22
2023-01-17T09:51:00.837Z,102709.88
2023-01-17T09:56:14.538Z,102721.59
2023-01-17T10:01:27.567Z,102709.63
2023-01-17T10:06:54.287Z,102704.19
2023-01-17T10:12:39.163Z,102696.19
2023-01-17T10:18:03.421Z,102696.38
2023-01-17T10:23:18.455Z,102707.81
2023-01-17T10:28:25.599Z,102698.22
2023-01-17T10:33:36.455Z,102701.41
2023-01-17T10:38:42.203Z,102673.81
2023-01-17T10:43:55.526Z,102684.47
2023-01-17T10:48:58.846Z,102671.19
2023-01-17T10:54:04.815Z,102687.88
2023-01-17T10:59:33.820Z,102691.84
2023-01-17T11:04:40.614Z,102685.44
2023-01-17T11:09:50.028Z,102691.63
2023-01-17T11:15:04.945Z,102693.03
2023-01-17T11:20:35.646Z,102683.78
2023-01-17T11:25:39.428Z,102687.97
2023-01-17T11:30:56.499Z,102701.84
2023-01-17T11:35:59.486Z,102695.13
2023-01-17T11:41:21.900Z,102685.91
2023-01-17T11:46:25.631Z,102668.34
2023-01-17T11:51:39.523Z,102701.13
2023-01-17T11:56:46.476Z,102685.84
2023-01-17T12:02:06.437Z,102669.06
2023-01-17T12:07:38.525Z,102694.88
2023-01-17T12:13:05.778Z,102703.34
2023-01-17T12:18:45.894Z,102699.31
2023-01-17T12:24:01.015Z,102694.44
2023-01-17T12:29:28.050Z,102689.53
2023-01-17T12:34:39.174Z,102686.03
2023-01-17T12:39:49.608Z,102710.72
2023-01-17T12:45:38.804Z,102705.81
2023-01-17T12:50:51.401Z,102708.50
2023-01-17T12:56:23.618Z,102713.22
2023-01-17T13:01:40.028Z,102700.53
2023-01-17T13:07:05.885Z,102715.50
2023-01-17T13:12:15.500Z,102713.38
2023-01-17T13:17:47.242Z,102720.56
2023-01-17T13:22:52.366Z,102715.47
2023-01-17T13:28:07.204Z,102719.88
2023-01-17T13:33:37.562Z,102718.84
2023-01-17T13:39:00.828Z,102729.13
2023-01-17T13:44:23.228Z,102706.84
2023-01-17T13:49:43.495Z,102742.78
2023-01-17T13:54:52.884Z,102743.84
2023-01-17T13:59:57.908Z,102730.91
2023-01-17T14:05:18.827Z,102761.66
2023-01-17T14:10:36.166Z,102745.25
2023-01-17T14:15:50.163Z,102756.78
2023-01-17T14:21:08.059Z,102767.91
2023-01-17T14:26:22.733Z,102745.44
2023-01-17T14:31:26.871Z,102732.13
2023-01-17T14:36:33.515Z,102721.72
2023-01-17T14:41:36.468Z,102742.09
2023-01-17T14:46:39.363Z,102748.44
2023-01-17T14:51:42.443Z,102763.00
2023-01-17T14:56:48.435Z,102762.88
2023-01-17T15:02:07.734Z,102769.59
2023-01-17T15:07:19.083Z,102760.75
2023-01-17T15:12:22.023Z,102769.31
2023-01-17T15:17:25.225Z,102771.13
2023-01-17T15:22:30.032Z,102742.03
2023-01-17T15:27:33.183Z,102760.81
2023-01-17T15:32:38.168Z,102755.47
2023-01-17T15:37:42.004Z,102758.63
2023-01-17T15:43:05.409Z,102777.97
2023-01-17T15:48:26.591Z,102770.31
2023-01-17T15:53:37.953Z,102784.19
2023-01-17T15:58:40.862Z,102770.09
2023-01-17T16:03:55.526Z,102772.44
2023-01-17T16:08:58.560Z,102782.63
2023-01-17T16:14:01.743Z,102781.63
2023-01-17T16:19:05.691Z,102793.38
2023-01-17T16:24:11.346Z,102801.44
2023-01-17T16:29:14.225Z,102795.50
2023-01-17T16:34:17.029Z,102787.16
2023-01-17T16:39:19.898Z,102803.72
2023-01-17T16:44:22.956Z,102795.88
2023-01-17T16:49:25.819Z,102812.84
2023-01-17T16:54:28.690Z,102800.88
2023-01-17T16:59:45.930Z,102814.00
2023-01-17T17:04:52.816Z,102800.06
2023-01-17T17:09:55.746Z,102773.16
2023-01-17T17:14:58.476Z,102790.66
2023-01-17T17:20:01.204Z,102820.53
2023-01-17T17:25:08.132Z,102812.06
2023-01-17T17:30:11.842Z,102802.59
2023-01-17T17:35:14.978Z,102797.81
2023-01-17T17:40:18.194Z,102801.44
2023-01-17T17:45:21.210Z,102831.56
2023-01-17T17:50:24.130Z,102814.22
2023-01-17T17:55:27.326Z,102798.59
2023-01-17T18:00:30.062Z,102781.91
2023-01-17T18:05:33.012Z,102793.09
2023-01-17T18:10:35.990Z,102776.00
2023-01-17T18:15:38.714Z,102781.03
2023-01-17T18:20:41.717Z,102787.91
2023-01-17T18:25:44.887Z,102778.50
2023-01-17T18:30:47.745Z,102773.25
2023-01-17T18:35:54.959Z,102796.28
2023-01-17T18:41:03.285Z,102791.63
2023-01-17T18:46:07.311Z,102783.50
2023-01-17T18:51:15.730Z,102803.97
2023-01-17T18:56:20.774Z,102769.03
2023-01-17T19:01:26.194Z,102765.72
2023-01-17T19:06:34.743Z,102790.94
2023-01-17T19:11:37.673Z,102778.59
2023-01-17T19:16:41.886Z,102796.28
2023-01-17T19:21:45.280Z,102761.22
2023-01-17T19:26:53.162Z,102786.75
2023-01-17T19:31:56.066Z,102780.75
2023-01-17T19:36:59.166Z,102758.22
2023-01-17T19:42:02.132Z,102753.19
2023-01-17T19:47:05.012Z,102752.09
2023-01-17T19:52:07.877Z,102787.38
2023-01-17T19:57:10.751Z,102769.19
2023-01-17T20:02:13.637Z,102762.94
2023-01-17T20:07:16.734Z,102789.94
2023-01-17T20:12:19.849Z,102765.06
2023-01-17T20:17:22.756Z,102784.50
2023-01-17T20:22:25.626Z,102765.56
2023-01-17T20:27:28.794Z,102772.84
2023-01-17T20:32:31.684Z,102796.44
2023-01-17T20:37:34.501Z,102776.22
2023-01-17T20:42:37.413Z,102789.63
2023-01-17T20:47:41.644Z,102791.16
2023-01-17T20:52:45.080Z,102783.38
2023-01-17T20:57:48.108Z,102777.69
2023-01-17T21:02:51.061Z,102774.63
2023-01-17T21:07:54.210Z,102761.44
2023-01-17T21:12:57.342Z,102769.75
2023-01-17T21:18:00.539Z,102766.47
2023-01-17T21:23:03.240Z,102759.13
2023-01-17T21:28:06.584Z,102779.41
2023-01-17T21:33:09.603Z,102781.44
2023-01-17T21:38:14.130Z,102788.03
2023-01-17T21:43:17.078Z,102774.97
2023-01-17T21:48:20.128Z,102784.53
2023-01-17T21:53:22.973Z,102791.47
2023-01-17T21:58:43.850Z,102800.97
2023-01-17T22:03:51.664Z,102797.41
2023-01-17T22:08:55.157Z,102821.09
2023-01-17T22:13:59.299Z,102797.72
2023-01-17T22:19:02.258Z,102819.41
2023-01-17T22:24:05.735Z,102817.41
2023-01-17T22:29:11.384Z,102831.41
2023-01-17T22:34:15.745Z,102807.41
2023-01-17T22:39:18.630Z,102840.31
2023-01-17T22:44:21.609Z,102813.78
2023-01-17T22:49:24.858Z,102834.56
2023-01-17T22:54:27.660Z,102828.25
2023-01-17T22:59:30.554Z,102828.56
2023-01-17T23:04:33.404Z,102842.09
2023-01-17T23:09:36.298Z,102811.81
2023-01-17T23:14:57.388Z,102828.34
2023-01-17T23:20:00.149Z,102833.25
2023-01-17T23:25:08.963Z,102845.28
2023-01-17T23:30:14.590Z,102853.22
2023-01-17T23:35:19.282Z,102827.97
2023-01-17T23:40:22.349Z,102832.09
2023-01-17T23:45:25.412Z,102864.28
2023-01-17T23:50:28.411Z,102850.22
2023-01-17T23:55:31.255Z,102837.22
